createdAt,value
2022-09-02T00:04:43.258Z,4178.1
2022-09-02T00:10:15.946Z,4180.6
2022-09-02T00:15:50.754Z,4180.3
2022-09-02T00:21:25.651Z,4181.3
2022-09-02T00:27:00.437Z,4178.6
2022-09-02T00:32:35.503Z,4182.6
2022-09-02T00:38:10.228Z,4176.9
2022-09-02T00:43:45.383Z,4179.1
2022-09-02T00:49:22.556Z,4178.8
2022-09-02T00:54:58.408Z,4181.1
2022-09-02T01:00:35.860Z,4181
2022-09-02T01:06:10.588Z,4176.4
2022-09-02T01:11:46.498Z,4179.5
2022-09-02T01:17:21.304Z,4176.4
2022-09-02T01:22:57.038Z,4178.5
2022-09-02T01:28:31.856Z,4179.5
2022-09-02T01:34:06.799Z,4177.1
2022-09-02T01:39:41.612Z,4175.6
2022-09-02T01:45:17.309Z,4179
2022-09-02T01:50:52.215Z,4177.3
2022-09-02T01:56:27.000Z,4176.4
2022-09-02T02:02:25.526Z,4172.3
2022-09-02T02:07:59.227Z,4176.3
2022-09-02T02:13:33.960Z,4175.4
2022-09-02T02:19:08.928Z,4175.3
2022-09-02T02:24:43.787Z,4174.8
2022-09-02T02:30:19.401Z,4174.9
2022-09-02T02:35:56.534Z,4174.9
2022-09-02T02:41:31.907Z,4175.9
2022-09-02T02:47:07.128Z,4174.3
2022-09-02T02:52:41.927Z,4174.1
2022-09-02T02:58:18.869Z,4176.4
2022-09-02T03:04:15.290Z,4172.3
2022-09-02T03:09:48.197Z,4173.8
2022-09-02T03:15:23.106Z,4172.6
2022-09-02T03:20:57.862Z,4172.3
2022-09-02T03:26:32.676Z,4174.1
2022-09-02T03:32:09.931Z,4173.9
2022-09-02T03:37:44.858Z,4172.3
2022-09-02T03:43:20.781Z,4172.9
2022-09-02T03:48:55.558Z,4172.3
2022-09-02T03:54:30.421Z,4168.6
2022-09-02T04:00:05.419Z,4170.9
2022-09-02T04:05:40.512Z,4170.9
2022-09-02T04:11:15.371Z,4170.6
2022-09-02T04:16:50.135Z,4168.6
2022-09-02T04:22:25.247Z,4170.2
2022-09-02T04:28:00.142Z,4169.7
2022-09-02T04:33:35.383Z,4169.2
2022-09-02T04:39:12.035Z,4170.1
2022-09-02T04:44:46.956Z,4169.1
2022-09-02T04:50:21.702Z,4169.7
2022-09-02T04:55:59.101Z,4170.6
2022-09-02T05:01:58.053Z,4165.6
2022-09-02T05:07:32.322Z,4168.9
2022-09-02T05:13:07.502Z,4168.6
2022-09-02T05:18:42.369Z,4165.4
2022-09-02T05:24:17.141Z,4168.6
2022-09-02T05:29:51.877Z,4166.2
2022-09-02T05:35:26.660Z,4168.7
2022-09-02T05:41:01.378Z,4165.2
2022-09-02T05:46:36.668Z,4164.9
2022-09-02T05:52:11.477Z,4165.6
2022-09-02T05:57:47.432Z,4165.1
2022-09-02T06:03:24.123Z,4165.4
2022-09-02T06:08:58.991Z,4164.6
2022-09-02T06:14:33.771Z,4163.2
2022-09-02T06:20:12.553Z,4165.4
2022-09-02T06:25:47.497Z,4161.5
2022-09-02T06:31:23.671Z,4162.2
2022-09-02T06:36:59.436Z,4162.4
2022-09-02T06:42:34.318Z,4162.7
2022-09-02T06:48:09.446Z,4160.2
2022-09-02T06:53:44.299Z,4162.2
2022-09-02T06:59:19.119Z,4160.9
2022-09-02T07:04:58.747Z,4161
2022-09-02T07:10:33.669Z,4160
2022-09-02T07:16:09.218Z,4159.9
2022-09-02T07:21:45.233Z,4156.3
2022-09-02T07:27:20.937Z,4159.7
2022-09-02T07:32:56.157Z,4162.7
2022-09-02T07:38:30.965Z,4160.2
2022-09-02T07:44:06.955Z,4160.2
2022-09-02T07:50:22.526Z,4159.5
2022-09-02T07:55:58.163Z,4157.5
2022-09-02T08:01:55.373Z,4156.2
2022-09-02T08:07:38.428Z,4157.5
2022-09-02T08:13:14.313Z,4158.9
2022-09-02T08:18:49.303Z,4157.3
2022-09-02T08:24:24.190Z,4158.5
2022-09-02T08:29:59.027Z,4157
2022-09-02T08:35:34.738Z,4158.5
2022-09-02T08:41:09.709Z,4155.8
2022-09-02T08:46:45.527Z,4156.7
2022-09-02T08:52:20.652Z,4155.5
2022-09-02T08:57:56.616Z,4154.7
2022-09-02T09:03:53.730Z,4151.5
2022-09-02T09:09:26.745Z,4152.7
2022-09-02T09:15:02.151Z,4153
2022-09-02T09:20:37.067Z,4152.5
2022-09-02T09:26:12.470Z,4154.8
2022-09-02T09:31:47.984Z,4151.8
2022-09-02T09:37:24.045Z,4153
2022-09-02T09:48:34.870Z,4150.5
2022-09-02T09:54:09.754Z,4152.8
2022-09-02T09:59:44.677Z,4153.2
2022-09-02T10:05:19.707Z,4151.7
2022-09-02T10:10:55.400Z,4153.7
2022-09-02T10:16:32.084Z,4150.8
2022-09-02T10:22:06.848Z,4155.3
2022-09-02T10:27:41.783Z,4149.8
2022-09-02T10:33:16.851Z,4154.2
2022-09-02T10:38:51.812Z,4151.2
2022-09-02T10:44:27.420Z,4150.3
2022-09-02T10:50:02.380Z,4149.6
2022-09-02T10:55:37.892Z,4149.1
2022-09-02T11:01:14.243Z,4149.3
2022-09-02T11:07:05.225Z,4150.6
2022-09-02T11:12:40.339Z,4149.5
2022-09-02T11:18:16.272Z,4148.6
2022-09-02T11:23:52.628Z,4150.5
2022-09-02T11:29:27.932Z,4150.8
2022-09-02T11:35:05.759Z,4150.6
2022-09-02T11:40:43.188Z,4151.3
2022-09-02T11:46:21.023Z,4148.1
2022-09-02T11:52:02.065Z,4149.1
2022-09-02T11:57:37.537Z,4147.5
2022-09-02T12:05:04.392Z,4146.5
2022-09-02T12:10:39.768Z,4147.3
2022-09-02T12:16:19.907Z,4147.5
2022-09-02T12:21:55.965Z,4149
2022-09-02T12:27:32.670Z,4147.5
2022-09-02T12:33:09.051Z,4146.5
2022-09-02T12:38:43.800Z,4146.1
2022-09-02T12:44:18.762Z,4147.8
2022-09-02T12:49:54.013Z,4147.5
2022-09-02T12:55:28.713Z,4144.6
2022-09-02T13:01:04.135Z,4147
2022-09-02T13:06:39.427Z,4147.3
2022-09-02T13:12:14.131Z,4146.5
2022-09-02T13:17:48.860Z,4145.6
2022-09-02T13:24:44.130Z,4146.5
2022-09-02T13:30:19.218Z,4144.1
2022-09-02T13:35:54.929Z,4145.1
2022-09-02T13:41:29.809Z,4144.6
2022-09-02T13:47:04.863Z,4143.6
2022-09-02T13:54:25.283Z,4146.5
2022-09-02T14:00:01.847Z,4144.3
2022-09-02T14:05:37.018Z,4144.1
2022-09-02T14:11:16.884Z,4142.8
2022-09-02T14:16:51.728Z,4143.6
2022-09-02T14:22:27.157Z,4141.3
2022-09-02T14:28:02.243Z,4142.8
2022-09-02T14:33:38.367Z,4143.8
2022-09-02T14:39:13.455Z,4142.1
2022-09-02T14:44:48.255Z,4141.3
2022-09-02T14:50:25.221Z,4142.4
2022-09-02T14:56:00.250Z,4138.6
2022-09-02T15:01:36.331Z,4140.8
2022-09-02T15:07:11.419Z,4141.8
2022-09-02T15:12:46.383Z,4140.1
2022-09-02T15:18:23.064Z,4138.4
2022-09-02T15:23:58.287Z,4139.4
2022-09-02T15:29:33.292Z,4138.8
2022-09-02T15:35:08.170Z,4138.3
2022-09-02T15:40:42.992Z,4139.8
2022-09-02T15:46:18.862Z,4140.1
2022-09-02T15:51:56.287Z,4139.9
2022-09-02T15:57:32.453Z,4138.8
2022-09-02T16:03:29.022Z,4138.9
2022-09-02T16:09:02.561Z,4138.3
2022-09-02T16:14:38.481Z,4138.8
2022-09-02T16:20:14.160Z,4137.3
2022-09-02T16:25:50.256Z,4136.9
2022-09-02T16:31:27.259Z,4137.4
2022-09-02T16:37:02.037Z,4136.1
2022-09-02T16:42:39.429Z,4135.6
2022-09-02T16:48:14.267Z,4133.4
2022-09-02T16:53:50.982Z,4135.6
2022-09-02T16:59:25.700Z,4136.4
2022-09-02T17:05:00.303Z,4135.2
2022-09-02T17:10:35.174Z,4133.4
2022-09-02T17:16:11.285Z,4136.6
2022-09-02T17:21:48.255Z,4135.6
2022-09-02T17:27:22.912Z,4133.4
2022-09-02T17:32:57.806Z,4132.7
2022-09-02T17:38:32.605Z,4130.4
2022-09-02T17:44:07.512Z,4133.2
2022-09-02T17:49:43.326Z,4135.6
2022-09-02T17:55:18.063Z,4134.1
2022-09-02T18:00:54.094Z,4133.2
2022-09-02T18:06:34.480Z,4133.6
2022-09-02T18:12:09.742Z,4130.4
2022-09-02T18:17:44.616Z,4130.5
2022-09-02T18:23:19.362Z,4130.7
2022-09-02T18:28:54.324Z,4129
2022-09-02T18:34:31.696Z,4129.9
2022-09-02T18:40:07.100Z,4131.4
2022-09-02T18:45:43.849Z,4131.1
2022-09-02T18:51:19.287Z,4130.9
2022-09-02T18:56:56.051Z,4129.2
2022-09-02T19:02:31.217Z,4129.7
2022-09-02T19:08:06.102Z,4130.4
2022-09-02T19:13:41.893Z,4129.4
2022-09-02T19:19:16.954Z,4129.5
2022-09-02T19:24:52.046Z,4129
2022-09-02T19:30:27.116Z,4126.9
2022-09-02T19:36:02.373Z,4124.9
2022-09-02T19:41:37.226Z,4127.4
2022-09-02T19:48:12.965Z,4124.4
2022-09-02T19:53:48.300Z,4126.9
2022-09-02T19:59:23.221Z,4124.7
2022-09-02T20:04:58.040Z,4123.8
2022-09-02T20:10:32.867Z,4124.9
2022-09-02T20:16:08.938Z,4125.2
2022-09-02T20:22:05.880Z,4122.5
2022-09-02T20:27:39.530Z,4124.9
2022-09-02T20:33:14.330Z,4127.4
2022-09-02T20:38:50.131Z,4123
2022-09-02T20:44:25.091Z,4125.5
2022-09-02T20:50:00.017Z,4121.2
2022-09-02T20:55:36.585Z,4124.2
2022-09-02T21:01:12.198Z,4122
2022-09-02T21:06:47.293Z,4120.3
2022-09-02T21:12:22.437Z,4124.2
2022-09-02T21:18:20.678Z,4121
2022-09-02T21:24:16.202Z,4119.7
2022-09-02T21:29:51.248Z,4123.9
2022-09-02T21:35:25.936Z,4120.3
2022-09-02T21:41:00.809Z,4119.5
2022-09-02T21:46:37.682Z,4121.5
2022-09-02T21:52:12.638Z,4120.8
2022-09-02T21:57:48.017Z,4119.3
2022-09-02T22:03:24.129Z,4121
2022-09-02T22:08:59.072Z,4118.8
2022-09-02T22:14:33.854Z,4119
2022-09-02T22:20:08.750Z,4120.3
2022-09-02T22:26:05.533Z,4116.8
2022-09-02T22:31:40.898Z,4119.8
2022-09-02T22:37:15.841Z,4116.1
2022-09-02T22:42:50.659Z,4117.8
2022-09-02T22:48:26.542Z,4118.8
2022-09-02T22:54:01.527Z,4117.8
2022-09-02T22:59:36.386Z,4117
2022-09-02T23:05:12.196Z,4117.1
2022-09-02T23:10:48.285Z,4117.1
2022-09-02T23:16:24.012Z,4114.5
2022-09-02T23:21:58.906Z,4116.3
2022-09-02T23:27:34.778Z,4116.5
2022-09-02T23:33:09.463Z,4114.1
2022-09-02T23:38:44.521Z,4115.1
2022-09-02T23:44:20.376Z,4115.1
2022-09-02T23:49:58.719Z,4113.6
2022-09-02T23:55:33.520Z,4113
